createdAt,value
2019-03-18T00:00:10.117Z,6.77
2019-03-18T00:02:40.576Z,6.43
2019-03-18T00:05:11.154Z,6.73
2019-03-18T00:07:41.601Z,7.40
2019-03-18T00:10:12.293Z,6.57
2019-03-18T00:12:42.803Z,6.53
2019-03-18T00:15:13.425Z,6.37
2019-03-18T00:17:43.910Z,7.10
2019-03-18T00:20:14.612Z,6.90
2019-03-18T00:22:45.076Z,6.73
2019-03-18T00:25:15.687Z,6.90
2019-03-18T00:27:46.342Z,7.00
2019-03-18T00:30:17.868Z,6.60
2019-03-18T00:32:48.320Z,5.93
2019-03-18T00:35:18.939Z,6.40
2019-03-18T00:37:49.384Z,6.57
2019-03-18T00:40:20.110Z,7.30
2019-03-18T00:42:50.574Z,7.27
2019-03-18T00:45:21.120Z,7.20
2019-03-18T00:47:51.671Z,7.07
2019-03-18T00:50:22.096Z,7.07
2019-03-18T00:52:52.582Z,7.80
2019-03-18T00:55:23.050Z,6.87
2019-03-18T00:57:53.541Z,7.13
2019-03-18T01:00:24.035Z,7.60
2019-03-18T01:02:54.521Z,6.90
2019-03-18T01:05:24.971Z,7.17
2019-03-18T01:07:55.464Z,7.20
2019-03-18T01:10:25.919Z,7.07
2019-03-18T01:12:56.409Z,7.20
2019-03-18T01:15:28.620Z,7.07
2019-03-18T01:17:59.051Z,6.87
2019-03-18T01:20:29.540Z,7.40
2019-03-18T01:23:00.024Z,7.77
2019-03-18T01:25:30.516Z,7.70
2019-03-18T01:28:00.991Z,8.07
2019-03-18T01:30:31.490Z,7.20
2019-03-18T01:33:01.946Z,7.13
2019-03-18T01:35:32.449Z,7.93
2019-03-18T01:38:02.901Z,7.57
2019-03-18T01:40:33.667Z,7.67
2019-03-18T01:43:04.154Z,6.57
2019-03-18T01:45:40.550Z,7.17
2019-03-18T01:48:06.913Z,7.17
2019-03-18T01:50:37.419Z,7.37
2019-03-18T01:53:07.875Z,7.43
2019-03-18T01:55:38.327Z,7.47
2019-03-18T01:58:08.826Z,7.30
2019-03-18T02:00:39.511Z,6.80
2019-03-18T02:03:09.962Z,7.17
2019-03-18T02:05:40.449Z,7.67
2019-03-18T02:08:10.932Z,7.30
2019-03-18T02:10:41.481Z,6.90
2019-03-18T02:13:11.935Z,7.33
2019-03-18T02:15:52.870Z,8.13
2019-03-18T02:18:14.573Z,8.53
2019-03-18T02:20:45.164Z,8.57
2019-03-18T02:23:15.633Z,9.87
2019-03-18T02:25:46.131Z,8.83
2019-03-18T02:28:16.587Z,7.60
2019-03-18T02:30:47.049Z,8.70
2019-03-18T02:33:17.560Z,7.80
2019-03-18T02:35:48.090Z,8.90
2019-03-18T02:38:18.546Z,9.13
2019-03-18T02:40:49.049Z,8.83
2019-03-18T02:43:19.540Z,8.37
2019-03-18T02:45:50.024Z,7.43
2019-03-18T02:48:20.482Z,9.67
2019-03-18T02:50:50.979Z,9.27
2019-03-18T02:53:21.430Z,9.50
2019-03-18T02:55:51.901Z,9.97
2019-03-18T02:58:22.409Z,9.97
2019-03-18T03:00:52.919Z,9.40
2019-03-18T03:03:23.432Z,12.23
2019-03-18T03:05:53.964Z,10.17
2019-03-18T03:08:24.430Z,11.17
2019-03-18T03:10:54.897Z,10.73
2019-03-18T03:13:25.423Z,11.10
2019-03-18T03:15:55.891Z,11.20
2019-03-18T03:18:26.349Z,11.50
2019-03-18T03:20:56.844Z,11.50
2019-03-18T03:23:27.300Z,11.43
2019-03-18T03:25:57.801Z,11.30
2019-03-18T03:28:28.303Z,11.47
2019-03-18T03:30:58.763Z,11.90
2019-03-18T03:33:29.254Z,11.90
2019-03-18T03:35:59.712Z,12.63
2019-03-18T03:38:30.221Z,12.90
2019-03-18T03:41:00.687Z,11.53
2019-03-18T03:43:31.346Z,11.77
2019-03-18T03:46:01.859Z,12.30
2019-03-18T03:48:32.321Z,12.40
2019-03-18T03:51:02.813Z,12.70
2019-03-18T03:53:33.306Z,12.43
2019-03-18T03:56:03.758Z,12.27
2019-03-18T03:58:34.354Z,11.67
2019-03-18T04:01:04.820Z,11.53
2019-03-18T04:03:38.802Z,11.70
2019-03-18T04:06:07.634Z,11.67
2019-03-18T04:08:38.310Z,11.57
2019-03-18T04:11:09.159Z,11.80
2019-03-18T04:13:39.620Z,11.97
2019-03-18T04:16:10.117Z,12.43
2019-03-18T04:18:40.572Z,11.77
2019-03-18T04:21:11.089Z,11.80
2019-03-18T04:23:41.580Z,12.00
2019-03-18T04:26:12.082Z,12.23
2019-03-18T04:28:42.540Z,13.70
2019-03-18T04:31:12.995Z,14.33
2019-03-18T04:33:43.493Z,15.33
2019-03-18T04:36:14.002Z,12.63
2019-03-18T04:38:44.493Z,12.77
2019-03-18T04:41:14.949Z,13.00
2019-03-18T04:43:45.419Z,13.23
2019-03-18T04:46:15.930Z,12.80
2019-03-18T04:48:46.402Z,11.80
2019-03-18T04:51:16.861Z,12.50
2019-03-18T04:53:47.357Z,12.83
2019-03-18T04:56:17.856Z,12.63
2019-03-18T04:58:48.309Z,12.97
2019-03-18T05:01:18.805Z,13.40
2019-03-18T05:03:49.317Z,13.77
2019-03-18T05:06:19.768Z,13.27
2019-03-18T05:08:50.267Z,12.60
2019-03-18T05:11:20.726Z,14.67
2019-03-18T05:13:51.300Z,13.30
2019-03-18T05:16:21.889Z,13.47
2019-03-18T05:18:52.359Z,13.37
2019-03-18T05:21:22.817Z,15.33
2019-03-18T05:23:53.418Z,14.33
2019-03-18T05:26:23.909Z,15.97
2019-03-18T05:28:54.371Z,16.73
2019-03-18T05:31:24.842Z,18.80
2019-03-18T05:33:55.312Z,16.67
2019-03-18T05:36:25.807Z,16.27
2019-03-18T05:38:56.326Z,15.77
2019-03-18T05:41:26.794Z,16.80
2019-03-18T05:43:57.312Z,17.57
2019-03-18T05:46:27.779Z,17.13
2019-03-18T05:48:58.276Z,17.30
2019-03-18T05:51:28.741Z,22.03
2019-03-18T05:53:59.257Z,20.90
2019-03-18T05:56:29.730Z,15.53
2019-03-18T05:59:00.247Z,16.17
2019-03-18T06:01:30.765Z,16.63
2019-03-18T06:04:01.275Z,20.73
2019-03-18T06:06:31.774Z,19.30
2019-03-18T06:09:02.306Z,18.80
2019-03-18T06:11:32.783Z,19.40
2019-03-18T06:14:03.438Z,17.07
2019-03-18T06:16:33.915Z,16.37
2019-03-18T06:19:04.442Z,14.73
2019-03-18T06:21:35.006Z,14.70
2019-03-18T06:24:06.561Z,14.67
2019-03-18T06:26:37.107Z,15.97
2019-03-18T06:29:08.247Z,13.77
2019-03-18T06:31:40.239Z,13.67
2019-03-18T06:34:10.733Z,13.57
2019-03-18T06:36:41.302Z,14.80
2019-03-18T06:39:11.843Z,15.23
2019-03-18T06:41:42.327Z,14.90
2019-03-18T06:44:13.344Z,17.43
2019-03-18T06:46:43.818Z,17.37
2019-03-18T06:49:14.418Z,13.07
2019-03-18T06:51:44.941Z,13.70
2019-03-18T06:54:15.520Z,13.53
2019-03-18T06:56:46.151Z,10.90
2019-03-18T06:59:16.670Z,12.00
2019-03-18T07:01:47.191Z,12.33
2019-03-18T07:04:17.741Z,11.67
2019-03-18T07:06:48.257Z,10.60
2019-03-18T07:09:18.744Z,11.03
2019-03-18T07:11:49.361Z,11.13
2019-03-18T07:14:20.908Z,12.37
2019-03-18T07:16:51.399Z,12.60
2019-03-18T07:19:21.888Z,12.23
2019-03-18T07:21:52.394Z,12.07
2019-03-18T07:24:22.905Z,12.53
2019-03-18T07:26:53.458Z,11.50
2019-03-18T07:29:23.924Z,11.10
2019-03-18T07:31:54.452Z,11.00
2019-03-18T07:34:24.975Z,10.77
2019-03-18T07:36:55.509Z,10.63
2019-03-18T07:39:26.040Z,11.27
2019-03-18T07:41:56.598Z,10.60
2019-03-18T07:44:27.100Z,10.33
2019-03-18T07:46:58.713Z,11.17
2019-03-18T07:49:29.618Z,9.83
2019-03-18T07:52:00.095Z,11.23
2019-03-18T07:54:32.914Z,11.60
2019-03-18T07:57:03.007Z,10.53
2019-03-18T07:59:33.547Z,11.67
2019-03-18T08:02:04.157Z,11.27
2019-03-18T08:04:37.564Z,11.10
2019-03-18T08:07:06.839Z,10.47
2019-03-18T08:09:37.379Z,10.60
2019-03-18T08:12:07.870Z,10.90
2019-03-18T08:14:38.381Z,11.07
2019-03-18T08:17:08.860Z,10.37
2019-03-18T08:19:39.377Z,10.27
2019-03-18T08:22:09.988Z,9.23
2019-03-18T08:24:40.557Z,8.80
2019-03-18T08:27:11.023Z,9.30
2019-03-18T08:29:41.479Z,8.57
2019-03-18T08:32:12.125Z,8.73
2019-03-18T08:34:42.581Z,8.07
2019-03-18T08:37:13.087Z,9.60
2019-03-18T08:39:43.600Z,8.50
2019-03-18T08:42:14.074Z,8.33
2019-03-18T08:44:44.610Z,8.97
2019-03-18T08:47:15.144Z,8.10
2019-03-18T08:49:45.647Z,7.70
2019-03-18T08:52:16.152Z,7.63
2019-03-18T08:54:46.701Z,10.13
2019-03-18T08:57:17.181Z,8.87
2019-03-18T08:59:47.655Z,11.43
2019-03-18T09:02:18.285Z,9.00
2019-03-18T09:04:48.755Z,8.03
2019-03-18T09:07:19.261Z,9.33
2019-03-18T09:09:49.721Z,8.40
2019-03-18T09:12:20.255Z,8.80
2019-03-18T09:14:50.716Z,9.27
2019-03-18T09:17:21.276Z,9.73
2019-03-18T09:19:51.765Z,9.50
2019-03-18T09:22:25.046Z,8.30
2019-03-18T09:24:55.648Z,9.10
2019-03-18T09:27:26.941Z,8.90
2019-03-18T09:29:57.449Z,10.27
2019-03-18T09:32:28.023Z,9.73
2019-03-18T09:34:58.494Z,10.27
2019-03-18T09:37:28.959Z,9.60
2019-03-18T09:39:59.479Z,8.63
2019-03-18T09:42:29.966Z,9.87
2019-03-18T09:45:00.505Z,7.43
2019-03-18T09:47:31.099Z,7.80
2019-03-18T09:50:01.847Z,8.67
2019-03-18T09:52:32.364Z,7.37
2019-03-18T09:55:02.950Z,6.97
2019-03-18T09:57:33.444Z,7.90
2019-03-18T10:00:04.004Z,7.80
2019-03-18T10:02:34.510Z,7.33
2019-03-18T10:05:05.346Z,8.60
2019-03-18T10:07:35.863Z,5.87
2019-03-18T10:10:07.442Z,5.67
2019-03-18T10:12:37.957Z,5.40
2019-03-18T10:15:10.137Z,5.23
2019-03-18T10:17:40.631Z,5.40
2019-03-18T10:20:11.268Z,5.57
2019-03-18T10:22:41.802Z,5.43
2019-03-18T10:25:12.435Z,4.70
2019-03-18T10:27:42.962Z,4.47
2019-03-18T10:30:13.669Z,4.83
2019-03-18T10:32:44.312Z,4.57
2019-03-18T10:35:15.078Z,5.83
2019-03-18T10:37:45.671Z,5.00
2019-03-18T10:40:19.257Z,3.90
2019-03-18T10:42:50.052Z,4.63
2019-03-18T10:45:20.701Z,4.40
2019-03-18T10:47:51.193Z,4.90
2019-03-18T10:50:21.995Z,7.30
2019-03-18T10:52:52.543Z,4.73
2019-03-18T10:55:22.993Z,4.70
2019-03-18T10:57:53.586Z,4.53
2019-03-18T11:00:24.250Z,4.07
2019-03-18T11:02:54.764Z,5.63
2019-03-18T11:05:25.338Z,4.80
2019-03-18T11:07:55.805Z,4.63
2019-03-18T11:10:26.267Z,5.07
2019-03-18T11:12:57.135Z,5.37
2019-03-18T11:15:27.615Z,4.77
2019-03-18T11:17:58.092Z,9.70
2019-03-18T11:20:28.608Z,4.50
2019-03-18T11:22:59.133Z,3.80
2019-03-18T11:25:29.642Z,4.60
2019-03-18T11:28:00.240Z,4.40
2019-03-18T11:30:30.954Z,4.43
2019-03-18T11:33:01.542Z,4.30
2019-03-18T11:35:32.055Z,4.70
2019-03-18T11:38:05.091Z,5.27
2019-03-18T11:40:35.868Z,4.60
2019-03-18T11:43:06.334Z,4.27
2019-03-18T11:45:36.891Z,4.43
2019-03-18T11:48:07.482Z,5.27
2019-03-18T11:50:38.093Z,6.27
2019-03-18T11:53:14.279Z,4.50
2019-03-18T11:55:40.765Z,4.20
2019-03-18T11:58:11.292Z,4.20
2019-03-18T12:00:41.841Z,3.80
2019-03-18T12:03:12.758Z,4.53
2019-03-18T12:05:43.232Z,4.63
2019-03-18T12:08:13.824Z,3.90
2019-03-18T12:10:46.298Z,3.77
2019-03-18T12:13:16.713Z,3.90
2019-03-18T12:15:50.356Z,3.73
2019-03-18T12:18:21.028Z,3.70
2019-03-18T12:20:51.535Z,3.77
2019-03-18T12:23:22.300Z,4.60
2019-03-18T12:25:52.888Z,4.20
2019-03-18T12:28:23.444Z,3.87
2019-03-18T12:30:54.020Z,3.93
2019-03-18T12:33:24.587Z,4.53
2019-03-18T12:35:55.635Z,4.87
2019-03-18T12:38:26.200Z,11.20
2019-03-18T12:40:56.694Z,3.80
2019-03-18T12:43:27.190Z,4.30
2019-03-18T12:45:58.508Z,4.43
2019-03-18T12:48:29.071Z,4.07
2019-03-18T12:50:59.616Z,4.13
2019-03-18T12:53:30.170Z,4.63
2019-03-18T12:56:01.711Z,4.43
2019-03-18T12:58:32.282Z,4.20
2019-03-18T13:01:12.520Z,4.33
2019-03-18T13:03:36.129Z,3.80
2019-03-18T13:06:06.660Z,4.10
2019-03-18T13:08:37.180Z,4.00
2019-03-18T13:11:07.666Z,5.93
2019-03-18T13:13:38.185Z,5.07
2019-03-18T13:16:08.679Z,5.57
2019-03-18T13:18:40.993Z,4.00
2019-03-18T13:21:11.458Z,3.63
2019-03-18T13:23:42.024Z,3.27
2019-03-18T13:26:12.543Z,3.67
2019-03-18T13:28:43.064Z,3.30
2019-03-18T13:31:13.568Z,4.53
2019-03-18T13:33:44.084Z,4.03
2019-03-18T13:36:16.330Z,3.60
2019-03-18T13:38:46.796Z,4.20
2019-03-18T13:41:17.371Z,3.90
2019-03-18T13:43:47.825Z,3.37
2019-03-18T13:46:18.708Z,3.43
2019-03-18T13:48:49.243Z,3.83
2019-03-18T13:51:21.225Z,5.60
2019-03-18T13:53:51.978Z,3.87
2019-03-18T13:56:22.498Z,3.57
2019-03-18T13:58:52.961Z,3.27
2019-03-18T14:01:23.517Z,3.40
2019-03-18T14:03:53.999Z,3.43
2019-03-18T14:06:24.626Z,3.90
2019-03-18T14:08:55.160Z,3.43
2019-03-18T14:11:25.752Z,3.30
2019-03-18T14:13:56.411Z,3.40
2019-03-18T14:16:26.948Z,3.50
2019-03-18T14:18:57.453Z,3.63
2019-03-18T14:21:33.259Z,4.13
2019-03-18T14:24:00.115Z,4.10
2019-03-18T14:26:30.672Z,3.73
2019-03-18T14:29:01.267Z,3.50
2019-03-18T14:31:32.947Z,3.40
2019-03-18T14:34:03.433Z,2.80
2019-03-18T14:36:33.949Z,3.40
2019-03-18T14:39:05.377Z,3.30
2019-03-18T14:41:35.903Z,2.80
2019-03-18T14:44:06.438Z,2.43
2019-03-18T14:46:37.115Z,2.63
2019-03-18T14:49:07.602Z,2.30
2019-03-18T14:51:45.550Z,2.33
2019-03-18T14:54:10.458Z,12.60
2019-03-18T14:56:40.949Z,2.80
2019-03-18T14:59:11.609Z,2.20
2019-03-18T15:01:42.162Z,2.60
2019-03-18T15:04:12.759Z,2.50
2019-03-18T15:06:43.238Z,2.53
2019-03-18T15:09:13.702Z,2.47
2019-03-18T15:11:44.220Z,2.50
2019-03-18T15:14:14.744Z,2.70
2019-03-18T15:16:45.250Z,2.57
2019-03-18T15:19:15.715Z,2.30
2019-03-18T15:21:57.640Z,2.90
2019-03-18T15:24:18.544Z,2.57
2019-03-18T15:26:49.098Z,2.47
2019-03-18T15:29:19.570Z,2.70
2019-03-18T15:31:52.255Z,3.20
2019-03-18T15:34:22.326Z,3.37
2019-03-18T15:36:52.864Z,2.50
2019-03-18T15:39:23.315Z,3.00
2019-03-18T15:41:53.926Z,3.80
2019-03-18T15:44:24.398Z,3.23
2019-03-18T15:46:54.904Z,3.70
2019-03-18T15:49:25.412Z,3.17
2019-03-18T15:51:55.924Z,2.87
2019-03-18T15:54:26.400Z,3.10
2019-03-18T15:56:56.893Z,3.50
2019-03-18T15:59:27.398Z,3.83
2019-03-18T16:01:57.842Z,3.73
2019-03-18T16:04:28.332Z,3.10
2019-03-18T16:06:58.792Z,2.80
2019-03-18T16:09:29.525Z,3.20
2019-03-18T16:11:59.989Z,3.10
2019-03-18T16:14:30.504Z,2.90
2019-03-18T16:17:02.348Z,2.90
2019-03-18T16:19:32.999Z,3.10
2019-03-18T16:22:03.488Z,3.00
2019-03-18T16:24:33.983Z,2.70
2019-03-18T16:27:04.479Z,2.97
2019-03-18T16:29:34.987Z,3.23
2019-03-18T16:32:11.228Z,3.17
2019-03-18T16:34:37.783Z,3.33
2019-03-18T16:37:08.231Z,3.27
2019-03-18T16:39:38.689Z,3.23
2019-03-18T16:42:09.186Z,3.43
2019-03-18T16:44:39.644Z,3.77
2019-03-18T16:47:10.153Z,3.90
2019-03-18T16:49:40.612Z,3.70
2019-03-18T16:52:11.104Z,3.40
2019-03-18T16:54:41.581Z,4.50
2019-03-18T16:57:12.107Z,4.87
2019-03-18T16:59:42.568Z,4.90
2019-03-18T17:02:13.078Z,4.27
2019-03-18T17:04:43.615Z,4.13
2019-03-18T17:07:14.083Z,4.43
2019-03-18T17:09:44.562Z,4.47
2019-03-18T17:12:15.017Z,4.40
2019-03-18T17:14:45.512Z,4.03
2019-03-18T17:17:15.969Z,4.40
2019-03-18T17:19:46.467Z,3.83
2019-03-18T17:22:16.979Z,4.43
2019-03-18T17:24:49.127Z,4.60
2019-03-18T17:27:19.822Z,4.83
2019-03-18T17:29:50.334Z,5.20
2019-03-18T17:32:20.775Z,5.30
2019-03-18T17:34:51.273Z,4.97
2019-03-18T17:37:21.777Z,4.87
2019-03-18T17:39:52.223Z,4.60
2019-03-18T17:42:22.715Z,4.47
2019-03-18T17:44:53.215Z,4.70
2019-03-18T17:47:23.664Z,5.07
2019-03-18T17:49:54.164Z,6.03
2019-03-18T17:52:24.653Z,5.83
2019-03-18T17:54:55.178Z,5.87
2019-03-18T17:57:25.708Z,6.00
2019-03-18T17:59:56.200Z,8.80
2019-03-18T18:02:26.708Z,11.27
2019-03-18T18:05:02.779Z,15.30
2019-03-18T18:07:29.416Z,17.03
2019-03-18T18:09:59.875Z,16.93
2019-03-18T18:12:30.377Z,14.33
2019-03-18T18:15:00.913Z,13.73
2019-03-18T18:17:31.475Z,13.47
2019-03-18T18:20:01.938Z,10.63
2019-03-18T18:22:32.439Z,9.27
2019-03-18T18:25:02.905Z,8.03
2019-03-18T18:27:33.355Z,7.67
2019-03-18T18:30:04.085Z,8.47
2019-03-18T18:32:34.531Z,8.93
2019-03-18T18:35:05.485Z,14.10
2019-03-18T18:37:36.004Z,13.37
2019-03-18T18:40:06.839Z,12.87
2019-03-18T18:42:37.334Z,13.33
2019-03-18T18:45:08.039Z,11.10
2019-03-18T18:47:38.545Z,9.63
2019-03-18T18:50:09.801Z,8.53
2019-03-18T18:52:40.261Z,8.97
2019-03-18T18:55:10.882Z,7.93
2019-03-18T18:57:41.452Z,7.13
2019-03-18T19:00:14.148Z,5.30
2019-03-18T19:02:44.891Z,6.30
2019-03-18T19:05:15.493Z,5.97
2019-03-18T19:07:46.140Z,5.10
2019-03-18T19:10:16.801Z,4.83
2019-03-18T19:12:47.236Z,4.37
2019-03-18T19:15:19.498Z,5.17
2019-03-18T19:17:50.110Z,4.53
2019-03-18T19:20:20.768Z,4.70
2019-03-18T19:22:51.359Z,4.70
2019-03-18T19:25:21.850Z,4.50
2019-03-18T19:27:52.489Z,4.63
2019-03-18T19:30:22.947Z,4.77
2019-03-18T19:32:53.403Z,4.63
2019-03-18T19:35:23.905Z,4.63
2019-03-18T19:37:54.425Z,4.93
2019-03-18T19:40:24.911Z,4.90
2019-03-18T19:42:55.361Z,4.80
2019-03-18T19:45:25.984Z,4.80
2019-03-18T19:47:56.459Z,5.00
2019-03-18T19:50:26.918Z,5.07
2019-03-18T19:52:57.424Z,4.57
2019-03-18T19:55:27.925Z,4.77
2019-03-18T19:57:58.488Z,4.97
2019-03-18T20:00:29.078Z,5.20
2019-03-18T20:02:59.635Z,5.13
2019-03-18T20:05:30.136Z,5.37
2019-03-18T20:08:00.596Z,7.80
2019-03-18T20:10:31.199Z,4.90
2019-03-18T20:13:04.554Z,5.20
2019-03-18T20:15:33.835Z,5.40
2019-03-18T20:18:04.434Z,5.10
2019-03-18T20:20:34.880Z,5.80
2019-03-18T20:23:05.576Z,5.27
2019-03-18T20:25:36.183Z,5.47
2019-03-18T20:28:06.644Z,6.27
2019-03-18T20:30:37.085Z,6.03
2019-03-18T20:33:07.687Z,6.60
2019-03-18T20:35:38.246Z,6.37
2019-03-18T20:38:08.696Z,6.50
2019-03-18T20:40:39.244Z,6.00
2019-03-18T20:43:09.701Z,6.27
2019-03-18T20:45:40.207Z,6.70
2019-03-18T20:48:10.663Z,6.97
2019-03-18T20:50:41.177Z,6.67
2019-03-18T20:53:11.680Z,8.20
2019-03-18T20:55:42.159Z,6.97
2019-03-18T20:58:12.648Z,7.20
2019-03-18T21:00:43.145Z,7.10
2019-03-18T21:03:13.615Z,6.40
2019-03-18T21:05:44.114Z,6.60
2019-03-18T21:08:14.573Z,7.57
2019-03-18T21:10:45.077Z,7.83
2019-03-18T21:13:17.105Z,8.60
2019-03-18T21:15:47.715Z,9.07
2019-03-18T21:18:18.210Z,9.20
2019-03-18T21:20:48.660Z,9.30
2019-03-18T21:23:19.112Z,10.50
2019-03-18T21:25:49.619Z,8.80
2019-03-18T21:28:20.081Z,8.53
2019-03-18T21:30:50.611Z,7.07
2019-03-18T21:33:21.079Z,7.40
2019-03-18T21:35:54.670Z,7.87
2019-03-18T21:38:23.823Z,7.43
2019-03-18T21:40:54.340Z,7.17
2019-03-18T21:43:24.801Z,7.20
2019-03-18T21:45:55.258Z,7.63
2019-03-18T21:48:25.759Z,7.40
2019-03-18T21:50:56.268Z,7.50
2019-03-18T21:53:26.804Z,6.83
2019-03-18T21:55:57.270Z,6.90
2019-03-18T21:58:27.763Z,6.90
2019-03-18T22:00:58.230Z,8.80
2019-03-18T22:03:28.732Z,8.07
2019-03-18T22:06:00.907Z,8.33
2019-03-18T22:08:31.474Z,9.67
2019-03-18T22:11:01.962Z,8.40
2019-03-18T22:13:32.452Z,7.80
2019-03-18T22:16:02.899Z,7.80
2019-03-18T22:18:33.400Z,7.57
2019-03-18T22:21:03.865Z,8.50
2019-03-18T22:23:34.308Z,7.70
2019-03-18T22:26:04.871Z,7.03
2019-03-18T22:28:35.365Z,8.17
2019-03-18T22:31:05.961Z,7.33
2019-03-18T22:33:36.460Z,7.10
2019-03-18T22:36:06.921Z,6.40
2019-03-18T22:38:37.397Z,6.27
2019-03-18T22:41:07.902Z,6.50
2019-03-18T22:43:38.369Z,6.27
2019-03-18T22:46:08.881Z,6.40
2019-03-18T22:48:39.346Z,6.37
2019-03-18T22:51:09.806Z,6.37
2019-03-18T22:53:40.295Z,6.60
2019-03-18T22:56:10.745Z,6.93
2019-03-18T22:58:41.245Z,6.87
2019-03-18T23:01:14.626Z,6.00
2019-03-18T23:03:45.126Z,6.90
2019-03-18T23:06:15.718Z,7.53
2019-03-18T23:08:48.721Z,6.90
2019-03-18T23:11:18.538Z,6.93
2019-03-18T23:13:48.984Z,7.07
2019-03-18T23:16:19.482Z,8.67
2019-03-18T23:18:49.932Z,7.40
2019-03-18T23:21:20.426Z,7.87
2019-03-18T23:23:50.921Z,7.60
2019-03-18T23:26:21.377Z,6.70
2019-03-18T23:28:51.825Z,7.30
2019-03-18T23:31:22.317Z,7.47
2019-03-18T23:33:52.780Z,7.30
2019-03-18T23:36:23.315Z,6.73
2019-03-18T23:38:53.799Z,8.00
2019-03-18T23:41:24.296Z,7.10
2019-03-18T23:43:54.866Z,8.20
2019-03-18T23:46:25.374Z,10.80
2019-03-18T23:48:55.841Z,9.67
2019-03-18T23:51:26.353Z,10.40
2019-03-18T23:53:56.807Z,7.80
2019-03-18T23:56:27.300Z,7.43
2019-03-18T23:58:57.748Z,9.10
